^^

Meteo Aereoporti Centro-Italia

 

 
LIRZ - Perugia S.Egidio (208 m.)
Dati ricevuti: 20/06/2024 16:50
Sereno
Sereno
 Vento da direzione variabile
Vento: direzione variabile 6 km/h
TEMPERATURA: 34°C
P.to di Rugiada: 18°C
Umidità: 39%
Pressione: 1018 hPa
Nuvole: Sereno
Visibilità: 10 km
2024/06/20 14:50 LIRZ 201450Z AUTO VRB03KT 9999 NCD 34/18 Q1018
 
LIPY - Ancona Falconara (12 m.)
Dati ricevuti: 20/06/2024 16:50
Sereno
Sereno
 Vento da NE
Vento: NE 17 km/h
TEMPERATURA: 28°C
Indice di Calore: 29°C
P.to di Rugiada: 20°C
Umidità: 62%
Pressione: 1017 hPa
Nuvole: Sereno
Visibilità: 10 km
2024/06/20 14:50 LIPY 201450Z AUTO 05009KT 9999 NCD 28/20 Q1017
 
LIPR - Rimini Miramare (12 m.)
Dati ricevuti: 20/06/2024 16:50
Sereno
Sereno
 Vento da N
Vento: N 11 km/h
TEMPERATURA: 28°C
Indice di Calore: 29°C
P.to di Rugiada: 20°C
Umidità: 62%
Pressione: 1018 hPa
Condizioni generali: Sereno
Visibilità: oltre 10 km
2024/06/20 14:50 LIPR 201450Z 01006KT 340V040 CAVOK 28/20 Q1018
 
LIRF - Roma Fiumicino (2 m.)
Dati ricevuti: 20/06/2024 16:50
Sereno
Sereno
 Vento da W
Vento: W 7 km/h
TEMPERATURA: 33°C
P.to di Rugiada: 13°C
Umidità: 30%
Pressione: 1016 hPa
Condizioni generali: Sereno
Visibilità: oltre 10 km
2024/06/20 14:50 LIRF 201450Z 26004KT 230V310 CAVOK 33/13 Q1016 NOSIG
 
LIRA - Roma Ciampino (129 m.)
Dati ricevuti: 20/06/2024 16:50
Sereno
Sereno
 Vento da W
Vento: W 6 km/h
TEMPERATURA: 37°C
P.to di Rugiada: 15°C
Umidità: 27%
Pressione: 1017 hPa
Condizioni generali: Sereno
Visibilità: oltre 10 km
2024/06/20 14:50 LIRA 201450Z 27003KT 190V360 CAVOK 37/15 Q1017
 
LIRU - Roma Urbe (17 m.)
Dati ricevuti: 20/06/2024 16:50
Sereno
Sereno
 Vento da direzione variabile
Vento: direzione variabile 4 km/h
TEMPERATURA: 39°C
P.to di Rugiada: 11°C
Umidità: 18%
Pressione: 1016 hPa
Condizioni generali: Sereno
Visibilità: oltre 10 km
2024/06/20 14:50 LIRU 201450Z VRB02KT CAVOK 39/11 Q1016
 
LIVF - Frontone (570 m.)
Dati ricevuti: 20/06/2024 13:55
Dati non aggiornati
Poco nuvoloso
Poco nuvoloso
 Vento da E
Vento: E 6 km/h
TEMPERATURA: 31°C
Indice di Calore: 31°C
P.to di Rugiada: 16°C
Umidità: 40%
Pressione: 1021 hPa
Nuvole: Poco nuvoloso
Visibilità: 8 km
2024/06/20 11:55 LIVF 201155Z 09003KT 8000 NSC 31/16 Q1021
 
LIRQ - Firenze Peretola (40 m.)
Dati ricevuti: 20/06/2024 16:50
Qualche nuvola
Qualche nuvola
 Vento da E
Vento: E 7 km/h
TEMPERATURA: 31°C
Indice di Calore: 32°C
P.to di Rugiada: 17°C
Umidità: 43%
Pressione: 1017 hPa
Nuvole: Qualche nuvola
Visibilità: 10 km
Dettagli Nuvole: Qualche nuvola 1219 m
2024/06/20 14:50 LIRQ 201450Z 10004KT 040V160 9999 FEW040 31/17 Q1017
 
LIBP - Pescara (10 m.)
Dati ricevuti: 20/06/2024 16:50
Sereno
Sereno
 Vento da NE
Vento: NE 13 km/h
TEMPERATURA: 30°C
Indice di Calore: 31°C
P.to di Rugiada: 18°C
Umidità: 49%
Pressione: 1018 hPa
Nuvole: Sereno
Visibilità: 10 km
2024/06/20 14:50 LIBP 201450Z AUTO 05007KT 9999 NCD 30/18 Q1018
 
LIRV - Viterbo (300 m.)
Dati ricevuti: 20/06/2024 16:55
Sereno
Sereno
 Vento da WSW
Vento: WSW 11 km/h
TEMPERATURA: 36°C
P.to di Rugiada: 10°C
Umidità: 20%
Pressione: 1018 hPa
Condizioni generali: Sereno
Visibilità: oltre 10 km
2024/06/20 14:55 LIRV 201455Z 24006KT CAVOK 36/10 Q1018
 
LIQN - Rieti (389 m.)
Dati ricevuti: 20/06/2024 16:50
Poco nuvoloso
Poco nuvoloso
 Vento da WNW
Vento: WNW 7 km/h
TEMPERATURA: 34°C
Indice di Calore: 36°C
P.to di Rugiada: 19°C
Umidità: 41%
Pressione: 1019 hPa
Nuvole: Poco nuvoloso
Visibilità: 8 km
2024/06/20 14:50 LIQN 201450Z 29004KT 230V320 8000 NSC 34/19 Q1019
 
LIRG - Guidonia -RM- (88 m.)
Dati ricevuti: 20/06/2024 16:55
Sereno
Sereno
 Vento da SSW
Vento: SSW 4 km/h
TEMPERATURA: 38°C
P.to di Rugiada: 16°C
Umidità: 27%
Pressione: 1017 hPa
Condizioni generali: Sereno
Visibilità: oltre 10 km
2024/06/20 14:55 LIRG 201455Z 20002KT CAVOK 38/16 Q1017
 
LIRK - Terminillo -RI-(1874 m.)
Dati ricevuti: 20/06/2024 16:55

 Vento da WNW
Vento: WNW 6 km/h
TEMPERATURA: 24°C
P.to di Rugiada: 12°C
Umidità: 47%
Pressione: 1030 hPa
2024/06/20 14:55 LIRK 201455Z AUTO 30003KT //// 24/12 Q1030
 
LIPK - Forlì (27 m.)
Dati ricevuti: 20/06/2024 16:50
Sereno
Sereno
 Vento da direzione variabile
Vento: direzione variabile 6 km/h
TEMPERATURA: 31°C
Indice di Calore: 34°C
P.to di Rugiada: 21°C
Umidità: 55%
Pressione: 1018 hPa
Condizioni generali: Sereno
Visibilità: oltre 10 km
2024/06/20 14:50 LIPK 201450Z VRB03KT CAVOK 31/21 Q1018
 
LIRS - Grosseto (5 m.)
Dati ricevuti: 20/06/2024 16:55
Sereno
Sereno
 Vento da WSW
Vento: WSW 13 km/h
TEMPERATURA: 34°C
P.to di Rugiada: 16°C
Umidità: 34%
Pressione: 1016 hPa
Condizioni generali: Sereno
Visibilità: oltre 10 km
2024/06/20 14:55 LIRS 201455Z 25007KT CAVOK 34/16 Q1016
 
LIRP - Pisa S.Giusto (2 m.)
Dati ricevuti: 20/06/2024 16:45
Sereno
Sereno
 Vento da SE
Vento: SE 17 km/h
TEMPERATURA: 29°C
Indice di Calore: 31°C
P.to di Rugiada: 21°C
Umidità: 62%
Pressione: 1017 hPa
Condizioni generali: Sereno
Visibilità: oltre 10 km
2024/06/20 14:45 LIRP 201445Z 14009KT CAVOK 29/21 Q1017 NOSIG